createdAt,value
2023-03-17T00:01:10.440Z,92.43
2023-03-17T00:03:46.575Z,92.44
2023-03-17T00:06:28.005Z,92.49
2023-03-17T00:09:01.646Z,92.42
2023-03-17T00:11:34.978Z,92.16
2023-03-17T00:14:08.704Z,92.13
2023-03-17T00:16:45.553Z,91.96
2023-03-17T00:19:34.161Z,91.79
2023-03-17T00:22:15.554Z,91.69
2023-03-17T00:24:48.262Z,91.43
2023-03-17T00:27:21.295Z,91.37
2023-03-17T00:29:54.404Z,91.19
2023-03-17T00:32:27.787Z,91.19
2023-03-17T00:35:00.801Z,91.21
2023-03-17T00:37:34.276Z,91.32
2023-03-17T00:40:11.049Z,91.30
2023-03-17T00:42:42.718Z,91.25
2023-03-17T00:45:16.988Z,91.38
2023-03-17T00:47:52.332Z,91.45
2023-03-17T00:50:28.882Z,91.63
2023-03-17T00:53:02.692Z,91.73
2023-03-17T00:55:35.861Z,91.84
2023-03-17T00:58:19.600Z,92.05
2023-03-17T01:00:55.532Z,92.17
2023-03-17T01:03:29.839Z,92.36
2023-03-17T01:06:05.154Z,92.51
2023-03-17T01:08:39.263Z,92.62
2023-03-17T01:11:19.438Z,92.54
2023-03-17T01:13:54.106Z,92.57
2023-03-17T01:16:27.262Z,92.51
2023-03-17T01:19:00.328Z,92.45
2023-03-17T01:21:33.869Z,92.29
2023-03-17T01:24:08.469Z,92.59
2023-03-17T01:26:41.810Z,92.83
2023-03-17T01:29:15.048Z,92.99
2023-03-17T01:31:47.861Z,93.12
2023-03-17T01:34:22.338Z,92.97
2023-03-17T01:36:55.618Z,93.14
2023-03-17T01:39:28.553Z,93.34
2023-03-17T01:42:02.925Z,93.65
2023-03-17T01:44:35.456Z,93.96
2023-03-17T01:47:09.307Z,94.23
2023-03-17T01:49:43.309Z,94.55
2023-03-17T01:52:18.591Z,94.77
2023-03-17T01:54:59.205Z,94.83
2023-03-17T01:57:37.455Z,94.91
2023-03-17T02:00:16.358Z,95.19
2023-03-17T02:02:54.365Z,95.31
2023-03-17T02:05:31.315Z,95.57
2023-03-17T02:08:06.084Z,95.84
2023-03-17T02:10:42.290Z,96.12
2023-03-17T02:13:17.516Z,96.34
2023-03-17T02:15:53.206Z,96.43
2023-03-17T02:18:26.169Z,96.65
2023-03-17T02:21:32.962Z,96.81
2023-03-17T02:24:12.239Z,96.91
2023-03-17T02:26:47.300Z,97.11
2023-03-17T02:29:23.935Z,97.27
2023-03-17T02:31:57.028Z,97.40
2023-03-17T02:34:29.772Z,97.39
2023-03-17T02:37:03.030Z,97.47
2023-03-17T02:39:36.670Z,97.41
2023-03-17T02:42:12.926Z,97.59
2023-03-17T02:44:47.392Z,97.60
2023-03-17T02:47:21.937Z,97.76
2023-03-17T02:49:55.027Z,97.82
2023-03-17T02:52:28.444Z,97.83
2023-03-17T02:55:01.131Z,97.63
2023-03-17T02:57:34.632Z,97.56
2023-03-17T03:00:10.098Z,97.57
2023-03-17T03:02:44.167Z,97.45
2023-03-17T03:05:17.793Z,97.34
2023-03-17T03:07:51.832Z,97.42
2023-03-17T03:10:24.718Z,97.34
2023-03-17T03:12:57.427Z,97.31
2023-03-17T03:15:30.274Z,97.39
2023-03-17T03:18:02.968Z,97.23
2023-03-17T03:20:36.597Z,97.25
2023-03-17T03:23:09.423Z,97.11
2023-03-17T03:25:42.966Z,96.97
2023-03-17T03:28:16.529Z,96.98
2023-03-17T03:30:49.567Z,97.04
2023-03-17T03:33:23.413Z,97.25
2023-03-17T03:35:56.471Z,97.48
2023-03-17T03:38:30.972Z,97.49
2023-03-17T03:41:04.078Z,97.35
2023-03-17T03:43:38.182Z,97.23
2023-03-17T03:46:11.739Z,97.06
2023-03-17T03:48:44.693Z,96.99
2023-03-17T03:51:18.434Z,97.10
2023-03-17T03:53:51.320Z,97.00
2023-03-17T03:56:24.819Z,96.59
2023-03-17T03:58:58.208Z,96.35
2023-03-17T04:01:31.735Z,96.40
2023-03-17T04:04:04.736Z,96.56
2023-03-17T04:06:37.660Z,96.80
2023-03-17T04:09:10.428Z,96.74
2023-03-17T04:11:44.506Z,96.81
2023-03-17T04:14:18.916Z,96.53
2023-03-17T04:16:53.014Z,96.55
2023-03-17T04:19:25.923Z,96.71
2023-03-17T04:21:58.935Z,96.97
2023-03-17T04:24:31.809Z,97.08
2023-03-17T04:27:06.181Z,97.25
2023-03-17T04:29:39.607Z,96.97
2023-03-17T04:32:15.183Z,97.01
2023-03-17T04:34:49.187Z,96.89
2023-03-17T04:37:22.893Z,97.12
2023-03-17T04:39:56.559Z,97.47
2023-03-17T04:42:29.386Z,97.69
2023-03-17T04:45:02.114Z,97.78
2023-03-17T04:47:36.077Z,97.77
2023-03-17T04:50:11.148Z,97.76
2023-03-17T04:52:44.610Z,97.82
2023-03-17T04:55:21.259Z,97.83
2023-03-17T04:57:53.937Z,97.86
2023-03-17T05:00:26.825Z,97.83
2023-03-17T05:02:59.598Z,97.87
2023-03-17T05:05:34.848Z,98.20
2023-03-17T05:08:08.135Z,98.00
2023-03-17T05:10:41.041Z,97.92
2023-03-17T05:13:14.383Z,97.96
2023-03-17T05:15:53.108Z,97.86
2023-03-17T05:18:27.894Z,97.75
2023-03-17T05:21:01.793Z,97.71
2023-03-17T05:23:35.791Z,97.96
2023-03-17T05:26:09.196Z,98.14
2023-03-17T05:28:42.322Z,98.19
2023-03-17T05:31:15.242Z,98.25
2023-03-17T05:33:49.825Z,98.31
2023-03-17T05:36:22.849Z,98.32
2023-03-17T05:38:56.729Z,98.26
2023-03-17T05:41:30.264Z,97.78
2023-03-17T05:44:03.811Z,97.58
2023-03-17T05:46:37.546Z,97.70
2023-03-17T05:49:11.095Z,97.50
2023-03-17T05:51:43.884Z,97.22
2023-03-17T05:54:16.836Z,97.25
2023-03-17T05:56:51.276Z,97.39
2023-03-17T05:59:24.120Z,97.51
2023-03-17T06:01:57.528Z,97.30
2023-03-17T06:04:30.475Z,97.11
2023-03-17T06:07:03.217Z,96.64
2023-03-17T06:09:36.671Z,96.25
2023-03-17T06:12:10.145Z,95.93
2023-03-17T06:14:42.880Z,95.80
2023-03-17T06:17:16.359Z,95.31
2023-03-17T06:19:49.609Z,94.93
2023-03-17T06:22:22.304Z,94.55
2023-03-17T06:24:56.177Z,94.20
2023-03-17T06:27:29.408Z,93.75
2023-03-17T06:30:02.599Z,93.52
2023-03-17T06:32:36.624Z,92.97
2023-03-17T06:35:10.243Z,92.80
2023-03-17T06:37:43.994Z,92.95
2023-03-17T06:40:17.615Z,92.15
2023-03-17T06:42:50.665Z,91.91
2023-03-17T06:45:23.433Z,91.38
2023-03-17T06:47:58.552Z,90.79
2023-03-17T06:50:31.498Z,90.42
2023-03-17T06:53:05.117Z,90.33
2023-03-17T06:55:37.997Z,89.74
2023-03-17T06:58:13.492Z,88.41
2023-03-17T07:00:49.188Z,88.14
2023-03-17T07:03:24.325Z,87.69
2023-03-17T07:05:57.918Z,87.30
2023-03-17T07:08:31.288Z,86.54
2023-03-17T07:11:04.928Z,85.95
2023-03-17T07:13:40.060Z,85.50
2023-03-17T07:16:16.524Z,85.11
2023-03-17T07:18:50.826Z,84.67
2023-03-17T07:21:23.068Z,84.41
2023-03-17T07:23:55.740Z,84.28
2023-03-17T07:26:28.583Z,84.74
2023-03-17T07:29:02.097Z,84.91
2023-03-17T07:31:37.319Z,84.52
2023-03-17T07:34:11.569Z,83.83
2023-03-17T07:36:45.222Z,83.54
2023-03-17T07:39:18.210Z,83.79
2023-03-17T07:41:52.785Z,83.91
2023-03-17T07:44:27.623Z,83.68
2023-03-17T07:47:00.745Z,83.85
2023-03-17T07:49:41.319Z,83.87
2023-03-17T07:52:10.673Z,83.79
2023-03-17T07:54:45.085Z,83.98
2023-03-17T07:57:18.804Z,83.61
2023-03-17T07:59:51.898Z,83.58
2023-03-17T08:02:25.435Z,83.41
2023-03-17T08:04:58.284Z,83.26
2023-03-17T08:07:32.665Z,83.44
2023-03-17T08:10:09.013Z,83.25
2023-03-17T08:12:43.017Z,82.33
2023-03-17T08:15:16.853Z,82.18
2023-03-17T08:17:50.096Z,81.66
2023-03-17T08:20:23.452Z,81.54
2023-03-17T08:22:58.085Z,81.19
2023-03-17T08:25:32.401Z,80.99
2023-03-17T08:28:05.611Z,80.84
2023-03-17T08:30:39.489Z,80.38
2023-03-17T08:33:13.614Z,79.63
2023-03-17T08:35:47.306Z,79.92
2023-03-17T08:38:21.280Z,79.55
2023-03-17T08:40:54.192Z,79.23
2023-03-17T08:43:29.005Z,79.11
2023-03-17T08:46:27.520Z,78.78
2023-03-17T08:49:02.108Z,78.39
2023-03-17T08:51:38.281Z,78.89
2023-03-17T08:54:11.877Z,78.49
2023-03-17T08:56:47.009Z,78.43
2023-03-17T08:59:19.932Z,78.90
2023-03-17T09:01:53.066Z,78.53
2023-03-17T09:04:26.972Z,78.72
2023-03-17T09:07:03.974Z,78.72
2023-03-17T09:09:36.927Z,78.55
2023-03-17T09:12:11.708Z,78.54
2023-03-17T09:14:46.312Z,77.87
2023-03-17T09:17:20.585Z,77.94
2023-03-17T09:19:54.125Z,77.90
2023-03-17T09:22:27.343Z,78.11
2023-03-17T09:25:01.035Z,78.38
2023-03-17T09:27:34.144Z,77.99
2023-03-17T09:30:10.652Z,77.46
2023-03-17T09:32:45.215Z,77.38
2023-03-17T09:35:19.706Z,77.08
2023-03-17T09:37:52.970Z,77.28
2023-03-17T09:40:37.551Z,77.16
2023-03-17T09:43:19.134Z,76.47
2023-03-17T09:45:51.929Z,75.92
2023-03-17T09:48:35.747Z,75.92
2023-03-17T09:51:14.576Z,75.97
2023-03-17T09:54:08.065Z,75.18
2023-03-17T09:56:44.704Z,74.53
2023-03-17T09:59:37.174Z,74.50
2023-03-17T10:02:33.110Z,73.82
2023-03-17T10:05:28.050Z,73.68
2023-03-17T10:08:30.081Z,73.61
2023-03-17T10:11:36.796Z,73.90
2023-03-17T10:14:35.454Z,73.48
2023-03-17T10:17:23.553Z,73.25
2023-03-17T10:20:29.098Z,73.58
2023-03-17T10:23:06.404Z,73.20
2023-03-17T10:25:39.790Z,73.63
2023-03-17T10:28:29.828Z,73.88
2023-03-17T10:31:24.481Z,74.15
2023-03-17T10:33:58.536Z,74.69
2023-03-17T10:36:38.498Z,74.42
2023-03-17T10:39:16.465Z,74.37
2023-03-17T10:41:56.511Z,74.16
2023-03-17T10:44:39.660Z,73.78
2023-03-17T10:47:26.037Z,73.22
2023-03-17T10:50:05.783Z,72.34
2023-03-17T10:52:41.807Z,72.35
2023-03-17T10:55:21.056Z,71.95
2023-03-17T10:58:05.186Z,72.25
2023-03-17T11:00:40.091Z,72.97
2023-03-17T11:03:18.388Z,73.02
2023-03-17T11:06:01.372Z,73.05
2023-03-17T11:08:44.940Z,73.32
2023-03-17T11:11:34.987Z,73.48
2023-03-17T11:14:14.604Z,73.59
2023-03-17T11:16:57.256Z,73.56
2023-03-17T11:19:46.770Z,73.12
2023-03-17T11:22:33.390Z,73.38
2023-03-17T11:25:23.737Z,73.53
2023-03-17T11:28:17.272Z,73.22
2023-03-17T11:31:09.914Z,72.99
2023-03-17T11:34:00.319Z,72.44
2023-03-17T11:37:11.054Z,72.27
2023-03-17T11:39:57.889Z,70.98
2023-03-17T11:42:57.324Z,70.13
2023-03-17T11:45:53.167Z,70.09
2023-03-17T11:48:46.214Z,70.61
2023-03-17T11:51:38.386Z,70.50
2023-03-17T11:54:42.831Z,70.22
2023-03-17T11:57:36.675Z,69.90
2023-03-17T12:00:35.028Z,70.11
2023-03-17T12:03:40.420Z,70.03
2023-03-17T12:06:21.179Z,70.34
2023-03-17T12:09:17.640Z,70.55
2023-03-17T12:11:51.787Z,70.77
2023-03-17T12:14:38.668Z,71.20
2023-03-17T12:17:58.935Z,71.17
2023-03-17T12:21:02.412Z,71.47
2023-03-17T12:24:02.183Z,71.96
2023-03-17T12:26:57.837Z,72.31
2023-03-17T12:29:49.213Z,72.38
2023-03-17T12:32:31.489Z,72.71
2023-03-17T12:35:35.347Z,72.72
2023-03-17T12:38:22.102Z,72.80
2023-03-17T12:41:22.907Z,73.32
2023-03-17T12:44:10.558Z,73.15
2023-03-17T12:46:54.435Z,72.97
2023-03-17T12:49:50.668Z,73.12
2023-03-17T12:52:31.815Z,72.94
2023-03-17T12:55:08.570Z,72.65
2023-03-17T12:57:47.798Z,72.37
2023-03-17T13:00:33.523Z,71.44
2023-03-17T13:03:25.193Z,70.95
2023-03-17T13:06:05.106Z,70.96
2023-03-17T13:08:45.058Z,70.91
2023-03-17T13:11:28.464Z,71.01
2023-03-17T13:14:42.254Z,70.92
2023-03-17T13:17:30.324Z,70.99
2023-03-17T13:20:17.501Z,70.87
2023-03-17T13:23:13.960Z,70.95
2023-03-17T13:25:55.089Z,71.22
2023-03-17T13:28:44.291Z,71.63
2023-03-17T13:31:36.585Z,71.87
2023-03-17T13:34:18.162Z,71.62
2023-03-17T13:37:04.812Z,71.97
2023-03-17T13:39:51.377Z,72.27
2023-03-17T13:42:29.256Z,72.69
2023-03-17T13:45:28.103Z,73.36
2023-03-17T13:48:33.311Z,73.67
2023-03-17T13:51:25.426Z,73.94
2023-03-17T13:54:09.181Z,74.05
2023-03-17T13:56:49.259Z,73.98
2023-03-17T13:59:39.485Z,73.87
2023-03-17T14:02:22.011Z,73.85
2023-03-17T14:05:07.221Z,74.14
2023-03-17T14:08:03.976Z,74.04
2023-03-17T14:10:37.676Z,74.25
2023-03-17T14:13:26.726Z,74.38
2023-03-17T14:16:26.207Z,74.54
2023-03-17T14:19:29.100Z,74.84
2023-03-17T14:22:09.623Z,74.59
2023-03-17T14:24:42.470Z,74.52
2023-03-17T14:27:15.599Z,74.25
2023-03-17T14:29:48.470Z,74.32
2023-03-17T14:32:24.561Z,74.54
2023-03-17T14:35:00.244Z,74.72
2023-03-17T14:37:33.965Z,75.02
2023-03-17T14:40:23.640Z,75.34
2023-03-17T14:42:56.681Z,75.56
2023-03-17T14:45:52.103Z,75.43
2023-03-17T14:48:34.348Z,75.48
2023-03-17T14:51:39.417Z,75.36
2023-03-17T14:54:24.575Z,75.20
2023-03-17T14:57:09.620Z,75.09
2023-03-17T14:59:45.166Z,75.18
2023-03-17T15:02:34.576Z,75.04
2023-03-17T15:05:21.162Z,75.13
2023-03-17T15:07:54.662Z,75.15
2023-03-17T15:10:31.440Z,75.27
2023-03-17T15:13:07.403Z,75.43
2023-03-17T15:15:42.795Z,75.75
2023-03-17T15:18:18.052Z,76.24
2023-03-17T15:20:52.481Z,76.37
2023-03-17T15:23:27.298Z,76.43
2023-03-17T15:26:00.296Z,76.54
2023-03-17T15:28:33.726Z,76.69
2023-03-17T15:31:15.957Z,76.49
2023-03-17T15:33:49.429Z,76.67
2023-03-17T15:36:32.360Z,76.28
2023-03-17T15:38:59.650Z,76.07
2023-03-17T15:41:32.752Z,76.09
2023-03-17T15:44:06.334Z,75.76
2023-03-17T15:46:39.644Z,75.74
2023-03-17T15:49:14.712Z,75.65
2023-03-17T15:51:48.990Z,76.01
2023-03-17T15:54:23.691Z,76.13
2023-03-17T15:56:57.303Z,76.34
2023-03-17T15:59:30.897Z,76.50
2023-03-17T16:02:03.934Z,76.74
2023-03-17T16:04:37.279Z,77.13
2023-03-17T16:07:13.501Z,77.40
2023-03-17T16:09:47.262Z,77.76
2023-03-17T16:12:20.587Z,77.93
2023-03-17T16:14:53.581Z,78.17
2023-03-17T16:17:30.179Z,78.40
2023-03-17T16:20:04.691Z,78.60
2023-03-17T16:22:43.283Z,78.76
2023-03-17T16:25:30.351Z,78.83
2023-03-17T16:28:17.539Z,79.13
2023-03-17T16:30:52.351Z,79.39
2023-03-17T16:33:31.733Z,79.60
2023-03-17T16:36:04.638Z,79.65
2023-03-17T16:38:37.804Z,79.78
2023-03-17T16:41:21.356Z,79.89
2023-03-17T16:44:00.822Z,80.00
2023-03-17T16:46:36.275Z,80.14
2023-03-17T16:49:09.749Z,80.32
2023-03-17T16:51:43.411Z,80.46
2023-03-17T16:54:16.777Z,80.61
2023-03-17T16:56:49.826Z,80.84
2023-03-17T16:59:26.079Z,81.07
2023-03-17T17:01:59.695Z,81.27
2023-03-17T17:04:34.211Z,81.53
2023-03-17T17:07:07.384Z,81.73
2023-03-17T17:09:41.209Z,81.90
2023-03-17T17:12:15.785Z,81.93
2023-03-17T17:14:49.473Z,82.12
2023-03-17T17:17:22.236Z,82.19
2023-03-17T17:19:55.744Z,82.34
2023-03-17T17:22:30.490Z,82.50
2023-03-17T17:25:05.041Z,82.78
2023-03-17T17:27:41.978Z,82.98
2023-03-17T17:30:19.361Z,83.19
2023-03-17T17:32:53.473Z,83.05
2023-03-17T17:35:32.390Z,83.06
2023-03-17T17:38:04.782Z,83.29
2023-03-17T17:40:38.400Z,83.38
2023-03-17T17:43:12.223Z,83.42
2023-03-17T17:45:48.128Z,83.66
2023-03-17T17:48:25.503Z,83.85
2023-03-17T17:50:59.250Z,84.01
2023-03-17T17:53:31.982Z,84.33
2023-03-17T17:56:05.370Z,84.45
2023-03-17T17:58:38.165Z,84.71
2023-03-17T18:01:13.276Z,84.98
2023-03-17T18:03:47.015Z,85.31
2023-03-17T18:06:19.916Z,85.70
2023-03-17T18:08:53.172Z,86.08
2023-03-17T18:11:27.519Z,86.36
2023-03-17T18:14:00.589Z,86.77
2023-03-17T18:16:34.032Z,87.06
2023-03-17T18:19:10.291Z,87.21
2023-03-17T18:21:43.241Z,87.67
2023-03-17T18:24:16.579Z,87.94
2023-03-17T18:26:49.897Z,88.08
2023-03-17T18:29:22.772Z,88.16
2023-03-17T18:31:57.263Z,88.55
2023-03-17T18:34:35.354Z,88.57
2023-03-17T18:37:09.313Z,88.74
2023-03-17T18:39:43.559Z,89.08
2023-03-17T18:42:16.496Z,89.28
2023-03-17T18:44:50.012Z,89.55
2023-03-17T18:47:23.572Z,89.83
2023-03-17T18:49:58.452Z,90.08
2023-03-17T18:52:37.685Z,90.22
2023-03-17T18:55:12.332Z,90.36
2023-03-17T18:57:46.692Z,90.65
2023-03-17T19:00:20.241Z,90.83
2023-03-17T19:02:54.357Z,90.95
2023-03-17T19:05:27.215Z,91.23
2023-03-17T19:08:00.794Z,91.40
2023-03-17T19:10:34.882Z,91.61
2023-03-17T19:13:10.211Z,91.89
2023-03-17T19:15:44.467Z,91.96
2023-03-17T19:18:17.880Z,92.20
2023-03-17T19:20:51.416Z,92.25
2023-03-17T19:23:25.701Z,92.51
2023-03-17T19:25:59.322Z,92.67
2023-03-17T19:28:32.273Z,92.58
2023-03-17T19:31:05.552Z,92.55
2023-03-17T19:33:39.384Z,92.68
2023-03-17T19:36:14.260Z,92.60
2023-03-17T19:38:47.483Z,92.55
2023-03-17T19:41:20.975Z,92.73
2023-03-17T19:43:54.141Z,92.86
2023-03-17T19:46:27.564Z,93.16
2023-03-17T19:49:01.603Z,93.57
2023-03-17T19:51:34.907Z,93.96
2023-03-17T19:54:10.100Z,94.50
2023-03-17T19:56:43.132Z,94.98
2023-03-17T19:59:17.012Z,95.14
2023-03-17T20:01:50.013Z,95.47
2023-03-17T20:04:23.447Z,95.64
2023-03-17T20:06:58.162Z,95.85
2023-03-17T20:09:32.175Z,96.10
2023-03-17T20:12:05.447Z,96.36
2023-03-17T20:14:38.356Z,96.49
2023-03-17T20:17:12.327Z,96.66
2023-03-17T20:19:46.528Z,96.86
2023-03-17T20:22:19.637Z,97.00
2023-03-17T20:24:52.615Z,97.08
2023-03-17T20:27:26.082Z,97.09
2023-03-17T20:29:59.357Z,96.98
2023-03-17T20:32:32.834Z,96.85
2023-03-17T20:35:07.909Z,96.81
2023-03-17T20:37:40.874Z,96.83
2023-03-17T20:40:15.480Z,96.84
2023-03-17T20:42:49.743Z,96.99
2023-03-17T20:45:23.485Z,97.16
2023-03-17T20:47:57.482Z,97.37
2023-03-17T20:50:31.401Z,97.54
2023-03-17T20:53:05.711Z,97.60
2023-03-17T20:55:38.549Z,97.69
2023-03-17T20:58:13.950Z,97.73
2023-03-17T21:00:48.741Z,98.20
2023-03-17T21:03:21.842Z,98.45
2023-03-17T21:05:55.681Z,98.82
2023-03-17T21:08:29.016Z,99.07
2023-03-17T21:11:03.186Z,99.47
2023-03-17T21:13:37.629Z,99.90
2023-03-17T21:16:15.548Z,100.00
2023-03-17T21:18:50.022Z,100.00
2023-03-17T21:21:23.590Z,100.00
2023-03-17T21:23:57.336Z,100.00
2023-03-17T21:26:30.506Z,100.00
2023-03-17T21:29:04.182Z,100.00
2023-03-17T21:31:38.808Z,100.00
2023-03-17T21:34:12.768Z,100.00
2023-03-17T21:36:45.473Z,100.00
2023-03-17T21:39:21.170Z,100.00
2023-03-17T21:41:54.876Z,100.00
2023-03-17T21:44:28.415Z,100.00
2023-03-17T21:47:03.342Z,100.00
2023-03-17T21:49:36.078Z,100.00
2023-03-17T21:52:09.945Z,100.00
2023-03-17T21:54:43.616Z,100.00
2023-03-17T21:57:18.177Z,100.00
2023-03-17T21:59:51.302Z,100.00
2023-03-17T22:02:24.856Z,100.00
2023-03-17T22:04:58.013Z,100.00
2023-03-17T22:07:31.290Z,100.00
2023-03-17T22:10:06.530Z,100.00
2023-03-17T22:12:41.084Z,100.00
2023-03-17T22:15:14.727Z,100.00
2023-03-17T22:17:48.187Z,100.00
2023-03-17T22:20:21.716Z,100.00
2023-03-17T22:22:54.906Z,100.00
2023-03-17T22:25:27.879Z,100.00
2023-03-17T22:28:00.639Z,100.00
2023-03-17T22:30:37.485Z,100.00
2023-03-17T22:33:11.154Z,100.00
2023-03-17T22:35:44.887Z,100.00
2023-03-17T22:38:18.464Z,100.00
2023-03-17T22:41:04.613Z,100.00
2023-03-17T22:43:40.343Z,100.00
2023-03-17T22:46:14.090Z,100.00
2023-03-17T22:48:47.734Z,100.00
2023-03-17T22:51:24.338Z,100.00
2023-03-17T22:53:59.371Z,100.00
2023-03-17T22:56:33.254Z,100.00
2023-03-17T22:59:06.276Z,100.00
2023-03-17T23:01:39.658Z,100.00
2023-03-17T23:04:13.205Z,100.00
2023-03-17T23:06:47.699Z,100.00
2023-03-17T23:09:21.556Z,100.00
2023-03-17T23:11:54.882Z,100.00
2023-03-17T23:14:28.797Z,100.00
2023-03-17T23:17:01.713Z,100.00
2023-03-17T23:19:35.323Z,100.00
2023-03-17T23:22:08.900Z,100.00
2023-03-17T23:24:41.795Z,100.00
2023-03-17T23:27:16.081Z,100.00
2023-03-17T23:29:49.340Z,100.00
2023-03-17T23:32:23.045Z,100.00
2023-03-17T23:34:55.874Z,100.00
2023-03-17T23:37:28.777Z,100.00
2023-03-17T23:40:02.247Z,100.00
2023-03-17T23:42:36.264Z,100.00
2023-03-17T23:45:10.866Z,100.00
2023-03-17T23:47:43.949Z,100.00
2023-03-17T23:50:17.834Z,100.00
2023-03-17T23:52:52.032Z,100.00
2023-03-17T23:55:24.784Z,100.00
2023-03-17T23:57:57.458Z,100.00
